sensor_id;sensor_type;location;lat;lon;timestamp;P1;durP1;ratioP1;P2;durP2;ratioP2
57343;SDS011;43180;50.974;18.172;2023-03-01T00:05:47;44.80;;;16.70;;
57343;SDS011;43180;50.974;18.172;2023-03-01T00:15:30;94.50;;;31.40;;
57343;SDS011;43180;50.974;18.172;2023-03-01T00:25:13;56.00;;;18.10;;
57343;SDS011;43180;50.974;18.172;2023-03-01T00:34:56;67.90;;;22.20;;
57343;SDS011;43180;50.974;18.172;2023-03-01T00:44:39;38.60;;;18.10;;
57343;SDS011;43180;50.974;18.172;2023-03-01T00:54:21;64.60;;;25.30;;
57343;SDS011;43180;50.974;18.172;2023-03-01T01:04:05;65.60;;;21.80;;
57343;SDS011;43180;50.974;18.172;2023-03-01T01:13:50;58.20;;;18.50;;
57343;SDS011;43180;50.974;18.172;2023-03-01T01:23:39;59.50;;;20.50;;
57343;SDS011;43180;50.974;18.172;2023-03-01T01:33:23;50.10;;;18.00;;
57343;SDS011;43180;50.974;18.172;2023-03-01T01:43:14;84.40;;;19.10;;
57343;SDS011;43180;50.974;18.172;2023-03-01T01:53:12;49.40;;;18.20;;
57343;SDS011;43180;50.974;18.172;2023-03-01T02:03:03;83.10;;;17.20;;
57343;SDS011;43180;50.974;18.172;2023-03-01T02:12:58;60.80;;;21.30;;
57343;SDS011;43180;50.974;18.172;2023-03-01T02:22:56;53.30;;;19.00;;
57343;SDS011;43180;50.974;18.172;2023-03-01T02:30:34;130.60;;;56.80;;
57343;SDS011;43180;50.974;18.172;2023-03-01T02:40:22;52.40;;;19.70;;
57343;SDS011;43180;50.974;18.172;2023-03-01T02:50:22;44.60;;;18.90;;
57343;SDS011;43180;50.974;18.172;2023-03-01T03:00:28;36.40;;;15.00;;
57343;SDS011;43180;50.974;18.172;2023-03-01T03:10:26;52.30;;;16.60;;
57343;SDS011;43180;50.974;18.172;2023-03-01T03:20:15;74.70;;;24.30;;
57343;SDS011;43180;50.974;18.172;2023-03-01T03:30:05;50.30;;;17.20;;
57343;SDS011;43180;50.974;18.172;2023-03-01T03:40:22;53.60;;;20.60;;
57343;SDS011;43180;50.974;18.172;2023-03-01T03:50:06;33.10;;;13.80;;
57343;SDS011;43180;50.974;18.172;2023-03-01T03:59:50;59.10;;;24.20;;
57343;SDS011;43180;50.974;18.172;2023-03-01T04:09:41;41.30;;;15.00;;
57343;SDS011;43180;50.974;18.172;2023-03-01T04:19:24;58.90;;;21.50;;
57343;SDS011;43180;50.974;18.172;2023-03-01T04:29:09;40.70;;;13.80;;
57343;SDS011;43180;50.974;18.172;2023-03-01T04:38:54;29.80;;;15.50;;
57343;SDS011;43180;50.974;18.172;2023-03-01T04:48:41;60.10;;;17.30;;
57343;SDS011;43180;50.974;18.172;2023-03-01T04:58:27;76.50;;;19.90;;
57343;SDS011;43180;50.974;18.172;2023-03-01T05:08:12;68.50;;;22.40;;
57343;SDS011;43180;50.974;18.172;2023-03-01T05:18:04;35.80;;;12.10;;
57343;SDS011;43180;50.974;18.172;2023-03-01T05:27:59;34.20;;;10.60;;
57343;SDS011;43180;50.974;18.172;2023-03-01T05:37:50;54.30;;;18.20;;
57343;SDS011;43180;50.974;18.172;2023-03-01T05:47:48;42.10;;;19.60;;
57343;SDS011;43180;50.974;18.172;2023-03-01T05:57:39;50.40;;;23.10;;
57343;SDS011;43180;50.974;18.172;2023-03-01T06:07:22;68.60;;;20.70;;
57343;SDS011;43180;50.974;18.172;2023-03-01T06:17:04;46.70;;;20.60;;
57343;SDS011;43180;50.974;18.172;2023-03-01T06:19:30;147.50;;;67.80;;
57343;SDS011;43180;50.974;18.172;2023-03-01T06:29:12;54.30;;;21.90;;
57343;SDS011;43180;50.974;18.172;2023-03-01T06:38:56;60.50;;;20.80;;
57343;SDS011;43180;50.974;18.172;2023-03-01T06:48:38;71.90;;;27.60;;
57343;SDS011;43180;50.974;18.172;2023-03-01T06:58:22;103.70;;;34.90;;
57343;SDS011;43180;50.974;18.172;2023-03-01T07:15:22;98.90;;;37.00;;
57343;SDS011;43180;50.974;18.172;2023-03-01T07:25:08;110.00;;;37.70;;
57343;SDS011;43180;50.974;18.172;2023-03-01T07:34:51;68.50;;;28.90;;
57343;SDS011;43180;50.974;18.172;2023-03-01T07:44:34;92.10;;;34.00;;
57343;SDS011;43180;50.974;18.172;2023-03-01T07:54:18;60.70;;;26.50;;
57343;SDS011;43180;50.974;18.172;2023-03-01T08:04:00;64.40;;;27.90;;
57343;SDS011;43180;50.974;18.172;2023-03-01T08:13:47;78.10;;;31.30;;
57343;SDS011;43180;50.974;18.172;2023-03-01T08:23:31;61.10;;;23.90;;
57343;SDS011;43180;50.974;18.172;2023-03-01T08:33:23;65.70;;;31.80;;
57343;SDS011;43180;50.974;18.172;2023-03-01T08:43:06;105.10;;;43.00;;
57343;SDS011;43180;50.974;18.172;2023-03-01T08:52:50;73.80;;;34.60;;
57343;SDS011;43180;50.974;18.172;2023-03-01T09:02:35;78.40;;;32.60;;
57343;SDS011;43180;50.974;18.172;2023-03-01T09:12:20;46.80;;;21.10;;
57343;SDS011;43180;50.974;18.172;2023-03-01T09:22:04;34.20;;;13.90;;
57343;SDS011;43180;50.974;18.172;2023-03-01T09:31:47;33.70;;;15.50;;
57343;SDS011;43180;50.974;18.172;2023-03-01T09:52:13;23.10;;;12.60;;
57343;SDS011;43180;50.974;18.172;2023-03-01T10:02:18;35.80;;;20.10;;
57343;SDS011;43180;50.974;18.172;2023-03-01T10:12:15;37.40;;;19.20;;
57343;SDS011;43180;50.974;18.172;2023-03-01T10:22:34;41.40;;;20.50;;
57343;SDS011;43180;50.974;18.172;2023-03-01T10:32:37;29.80;;;14.80;;
57343;SDS011;43180;50.974;18.172;2023-03-01T10:43:00;25.20;;;17.40;;
57343;SDS011;43180;50.974;18.172;2023-03-01T10:53:02;24.90;;;14.30;;
57343;SDS011;43180;50.974;18.172;2023-03-01T11:12:44;21.20;;;13.20;;
57343;SDS011;43180;50.974;18.172;2023-03-01T11:22:43;27.30;;;14.90;;
57343;SDS011;43180;50.974;18.172;2023-03-01T11:32:42;27.00;;;11.60;;
57343;SDS011;43180;50.974;18.172;2023-03-01T11:53:19;15.70;;;8.40;;
57343;SDS011;43180;50.974;18.172;2023-03-01T12:44:44;23.80;;;13.00;;
57343;SDS011;43180;50.974;18.172;2023-03-01T12:55:00;32.40;;;11.90;;
57343;SDS011;43180;50.974;18.172;2023-03-01T13:05:19;27.60;;;12.10;;
57343;SDS011;43180;50.974;18.172;2023-03-01T13:55:50;18.80;;;12.10;;
57343;SDS011;43180;50.974;18.172;2023-03-01T14:23:25;14.30;;;7.50;;
57343;SDS011;43180;50.974;18.172;2023-03-01T14:33:26;18.00;;;12.10;;
57343;SDS011;43180;50.974;18.172;2023-03-01T14:43:17;25.40;;;13.90;;
57343;SDS011;43180;50.974;18.172;2023-03-01T14:53:07;28.60;;;12.50;;
57343;SDS011;43180;50.974;18.172;2023-03-01T15:03:17;20.90;;;11.80;;
57343;SDS011;43180;50.974;18.172;2023-03-01T15:13:24;32.40;;;12.20;;
57343;SDS011;43180;50.974;18.172;2023-03-01T15:23:18;29.50;;;14.30;;
57343;SDS011;43180;50.974;18.172;2023-03-01T15:43:58;24.80;;;16.10;;
57343;SDS011;43180;50.974;18.172;2023-03-01T15:53:22;21.70;;;9.70;;
57343;SDS011;43180;50.974;18.172;2023-03-01T16:03:10;26.40;;;15.50;;
57343;SDS011;43180;50.974;18.172;2023-03-01T16:12:54;31.70;;;14.30;;
57343;SDS011;43180;50.974;18.172;2023-03-01T16:22:41;37.00;;;14.70;;
57343;SDS011;43180;50.974;18.172;2023-03-01T16:32:31;23.20;;;11.80;;
57343;SDS011;43180;50.974;18.172;2023-03-01T16:42:19;25.80;;;13.10;;
57343;SDS011;43180;50.974;18.172;2023-03-01T16:52:01;35.40;;;12.80;;
57343;SDS011;43180;50.974;18.172;2023-03-01T17:01:44;35.40;;;13.40;;
57343;SDS011;43180;50.974;18.172;2023-03-01T17:11:28;39.90;;;14.10;;
57343;SDS011;43180;50.974;18.172;2023-03-01T17:13:53;70.10;;;32.30;;
57343;SDS011;43180;50.974;18.172;2023-03-01T17:23:37;21.10;;;12.90;;
57343;SDS011;43180;50.974;18.172;2023-03-01T17:40:39;107.50;;;31.90;;
57343;SDS011;43180;50.974;18.172;2023-03-01T17:50:21;76.50;;;31.60;;
57343;SDS011;43180;50.974;18.172;2023-03-01T18:00:06;49.90;;;18.30;;
57343;SDS011;43180;50.974;18.172;2023-03-01T18:09:54;79.70;;;28.90;;
57343;SDS011;43180;50.974;18.172;2023-03-01T18:19:39;78.90;;;24.40;;
57343;SDS011;43180;50.974;18.172;2023-03-01T18:29:24;56.80;;;15.80;;
57343;SDS011;43180;50.974;18.172;2023-03-01T18:39:07;74.60;;;24.90;;
57343;SDS011;43180;50.974;18.172;2023-03-01T18:48:50;80.10;;;21.70;;
57343;SDS011;43180;50.974;18.172;2023-03-01T18:58:34;93.50;;;27.50;;
57343;SDS011;43180;50.974;18.172;2023-03-01T19:08:25;74.90;;;24.60;;
57343;SDS011;43180;50.974;18.172;2023-03-01T19:18:12;54.50;;;21.00;;
57343;SDS011;43180;50.974;18.172;2023-03-01T19:27:54;87.30;;;25.40;;
57343;SDS011;43180;50.974;18.172;2023-03-01T19:37:42;89.00;;;26.50;;
57343;SDS011;43180;50.974;18.172;2023-03-01T19:47:24;112.40;;;35.00;;
57343;SDS011;43180;50.974;18.172;2023-03-01T20:04:23;66.90;;;25.10;;
57343;SDS011;43180;50.974;18.172;2023-03-01T20:14:09;177.30;;;45.70;;
57343;SDS011;43180;50.974;18.172;2023-03-01T20:23:54;169.70;;;44.80;;
57343;SDS011;43180;50.974;18.172;2023-03-01T20:33:38;298.70;;;65.50;;
57343;SDS011;43180;50.974;18.172;2023-03-01T20:43:30;205.40;;;43.40;;
57343;SDS011;43180;50.974;18.172;2023-03-01T20:53:14;84.20;;;23.90;;
57343;SDS011;43180;50.974;18.172;2023-03-01T21:02:56;148.70;;;44.00;;
57343;SDS011;43180;50.974;18.172;2023-03-01T21:12:40;185.30;;;52.10;;
57343;SDS011;43180;50.974;18.172;2023-03-01T21:22:22;194.70;;;48.80;;
57343;SDS011;43180;50.974;18.172;2023-03-01T21:32:07;215.30;;;60.40;;
57343;SDS011;43180;50.974;18.172;2023-03-01T21:41:53;353.90;;;79.10;;
57343;SDS011;43180;50.974;18.172;2023-03-01T21:51:39;217.40;;;45.60;;
57343;SDS011;43180;50.974;18.172;2023-03-01T22:01:25;184.90;;;45.30;;
57343;SDS011;43180;50.974;18.172;2023-03-01T22:11:17;92.10;;;30.80;;
57343;SDS011;43180;50.974;18.172;2023-03-01T22:21:05;137.30;;;40.30;;
57343;SDS011;43180;50.974;18.172;2023-03-01T22:30:49;145.90;;;47.50;;
57343;SDS011;43180;50.974;18.172;2023-03-01T22:40:32;119.40;;;33.90;;
57343;SDS011;43180;50.974;18.172;2023-03-01T22:50:14;131.10;;;45.00;;
57343;SDS011;43180;50.974;18.172;2023-03-01T22:59:57;103.50;;;28.80;;
57343;SDS011;43180;50.974;18.172;2023-03-01T23:09:41;112.70;;;28.90;;
57343;SDS011;43180;50.974;18.172;2023-03-01T23:19:27;166.80;;;42.00;;
57343;SDS011;43180;50.974;18.172;2023-03-01T23:29:14;186.30;;;45.80;;
57343;SDS011;43180;50.974;18.172;2023-03-01T23:39:02;161.50;;;47.20;;
57343;SDS011;43180;50.974;18.172;2023-03-01T23:48:48;254.20;;;57.30;;
57343;SDS011;43180;50.974;18.172;2023-03-01T23:58:32;92.60;;;32.80;;
